Time;durP1;ratioP1;P1;durP2;ratioP2;P2;SDS_P1;SDS_P2;PMS_P1;PMS_P2;Temp;Humidity;BMP_temperature;BMP_pressure;BME280_temperature;BME280_humidity;BME280_pressure;Samples;Min_cycle;Max_cycle;Signal;HPM_P1;HPM_P2
2022/11/07 00:02:02;;;;;;;4.13;1.17;;;;;;;10.58;99.08;100726.31;5035205;28;96660;-32
2022/11/07 00:04:29;;;;;;;6.78;1.85;;;;;;;10.60;98.99;100721.63;5034915;28;100929;-31
2022/11/07 00:06:55;;;;;;;6.28;1.25;;;;;;;10.58;98.77;100720.91;5052321;27;101221;-32
2022/11/07 00:09:20;;;;;;;6.03;1.17;;;;;;;10.61;98.85;100726.09;5036739;27;96576;-31
2022/11/07 00:11:45;;;;;;;2.25;0.70;;;;;;;10.61;98.57;100727.94;5036843;27;96829;-31
2022/11/07 00:14:15;;;;;;;1.50;0.98;;;;;;;10.61;98.57;100727.94;5035954;27;97943;-32
2022/11/07 00:16:42;;;;;;;1.77;1.08;;;;;;;10.60;98.60;100739.72;5035830;27;97766;-32
2022/11/07 00:19:07;;;;;;;4.10;1.20;;;;;;;10.60;98.71;100739.72;5034252;28;96704;-31
2022/11/07 00:21:33;;;;;;;3.50;0.47;;;;;;;10.58;98.99;100733.53;5036663;27;96765;-31
2022/11/07 00:23:59;;;;;;;2.35;1.17;;;;;;;10.57;98.72;100727.25;5035953;27;99794;-31
2022/11/07 00:26:24;;;;;;;2.10;0.93;;;;;;;10.56;98.75;100733.66;5033658;27;100772;-31
2022/11/07 00:28:49;;;;;;;1.80;0.73;;;;;;;10.57;98.61;100738.09;5036173;28;96815;-31
2022/11/07 00:31:15;;;;;;;1.88;0.90;;;;;;;10.56;98.62;100739.06;5036614;27;96840;-31
2022/11/07 00:33:42;;;;;;;1.27;0.77;;;;;;;10.57;98.52;100743.50;5034397;28;101205;-31
2022/11/07 00:36:08;;;;;;;10.20;1.10;;;;;;;10.57;98.56;100750.78;5051328;27;100687;-31
2022/11/07 00:38:34;;;;;;;4.22;0.95;;;;;;;10.57;98.32;100748.94;5034250;28;96527;-32
2022/11/07 00:41:04;;;;;;;3.80;1.10;;;;;;;10.56;98.48;100732.78;5036162;27;96816;-31
2022/11/07 00:43:30;;;;;;;2.63;1.08;;;;;;;10.55;98.49;100744.56;5051417;27;100754;-31
2022/11/07 00:45:56;;;;;;;6.10;1.00;;;;;;;10.58;98.60;100744.38;5034325;28;100892;-30
2022/11/07 00:48:22;;;;;;;1.25;0.80;;;;;;;10.56;98.33;100749.91;5036051;27;96718;-32
2022/11/07 00:50:48;;;;;;;4.32;1.02;;;;;;;10.58;98.48;100761.53;5036026;28;96797;-31
2022/11/07 00:53:13;;;;;;;5.88;1.08;;;;;;;10.56;98.50;100747.19;5035787;28;98045;-32
2022/11/07 00:55:38;;;;;;;2.67;1.25;;;;;;;10.60;98.51;100756.84;5036017;27;96990;-31
2022/11/07 00:58:04;;;;;;;1.85;0.70;;;;;;;10.59;98.45;100762.38;5035724;27;96628;-31
2022/11/07 01:00:29;;;;;;;2.88;1.00;;;;;;;10.59;98.37;100763.25;5035934;27;96940;-31
2022/11/07 01:05:39;;;;;;;4.88;1.00;;;;;;;10.57;98.24;100767.88;5033907;28;96922;-31
2022/11/07 01:08:04;;;;;;;1.77;0.82;;;;;;;10.59;98.33;100774.09;5035997;27;96678;-31
2022/11/07 01:10:30;;;;;;;2.55;1.00;;;;;;;10.60;98.22;100766.81;5051294;27;96838;-32
2022/11/07 01:12:55;;;;;;;1.77;0.70;;;;;;;10.62;98.20;100778.44;5035428;27;97952;-31
2022/11/07 01:15:21;;;;;;;7.10;0.70;;;;;;;10.60;98.12;100770.41;5034888;27;104899;-31
2022/11/07 01:17:46;;;;;;;0.40;0.40;;;;;;;10.62;98.06;100783.84;5035315;27;96604;-31
2022/11/07 01:20:12;;;;;;;3.70;1.02;;;;;;;10.63;97.91;100783.75;5051031;27;96988;-32
2022/11/07 01:22:37;;;;;;;3.30;1.08;;;;;;;10.64;97.82;100781.91;5035212;28;98052;-32
2022/11/07 01:25:03;;;;;;;4.75;1.30;;;;;;;10.66;97.81;100795.38;5034887;27;99169;-31
2022/11/07 01:27:29;;;;;;;4.45;0.75;;;;;;;10.68;97.86;100796.13;5033522;28;96727;-31
2022/11/07 01:29:54;;;;;;;1.33;0.73;;;;;;;10.71;97.82;100798.66;5035019;27;96853;-32
2022/11/07 01:32:20;;;;;;;5.28;1.20;;;;;;;10.72;97.76;100793.13;5035073;28;99862;-31
2022/11/07 01:34:45;;;;;;;3.08;0.93;;;;;;;10.74;97.89;100804.75;5035050;28;97819;-31
2022/11/07 01:37:10;;;;;;;7.85;0.95;;;;;;;10.73;98.15;100804.88;5034647;27;99909;-31
2022/11/07 01:39:36;;;;;;;1.52;1.00;;;;;;;10.72;98.38;100801.25;5035175;27;96870;-31
2022/11/07 01:42:02;;;;;;;1.17;0.57;;;;;;;10.71;98.50;100801.38;5034639;27;99345;-31
2022/11/07 01:44:27;;;;;;;6.47;1.60;;;;;;;10.72;98.51;100811.22;5050561;27;100990;-31
2022/11/07 01:46:57;;;;;;;2.65;0.80;;;;;;;10.71;98.55;100806.78;5035056;27;96494;-31
2022/11/07 01:49:30;;;;;;;4.50;0.65;;;;;;;10.70;98.74;100813.16;5033598;28;96761;-31
2022/11/07 01:52:05;;;;;;;1.30;0.43;;;;;;;10.69;98.69;100806.88;5034760;27;97361;-32
2022/11/07 01:54:43;;;;;;;2.22;0.75;;;;;;;10.70;98.47;100800.50;5050295;27;101209;-32
2022/11/07 01:57:24;;;;;;;4.00;1.15;;;;;;;10.72;98.32;100800.41;5050297;27;96669;-32
2022/11/07 01:59:53;;;;;;;2.25;0.75;;;;;;;10.72;98.29;100805.81;5033284;27;96751;-32
2022/11/07 02:02:18;;;;;;;3.60;0.82;;;;;;;10.71;98.39;100814.91;5049999;27;101308;-31
2022/11/07 02:04:44;;;;;;;3.58;1.50;;;;;;;10.71;98.29;100815.78;5034452;28;99235;-31
2022/11/07 02:07:19;;;;;;;3.67;1.10;;;;;;;10.70;98.30;100803.22;5033428;28;96555;-32
2022/11/07 02:09:45;;;;;;;3.03;1.35;;;;;;;10.70;98.31;100802.31;5033807;28;96788;-31
2022/11/07 02:12:10;;;;;;;1.98;0.85;;;;;;;10.69;97.90;100798.75;5034483;27;98182;-31
2022/11/07 02:14:36;;;;;;;1.15;0.70;;;;;;;10.71;98.20;100817.63;5032988;28;100694;-31
2022/11/07 02:17:01;;;;;;;1.55;0.85;;;;;;;10.68;98.17;100801.53;5033645;27;104317;-31
2022/11/07 02:19:33;;;;;;;7.72;0.88;;;;;;;10.70;98.22;100808.63;5034282;27;96777;-31
2022/11/07 02:22:36;;;;;;;4.70;0.95;;;;;;;10.70;98.16;100813.16;5032768;28;101057;-32
2022/11/07 02:25:07;;;;;;;6.22;1.13;;;;;;;10.70;98.41;100819.47;5034567;28;97842;-31
2022/11/07 02:27:34;;;;;;;1.42;1.00;;;;;;;10.71;98.14;100813.06;5034876;27;96569;-31
2022/11/07 02:30:03;;;;;;;1.77;1.10;;;;;;;10.75;98.08;100816.44;5033225;28;96862;-31
2022/11/07 02:32:29;;;;;;;3.22;1.10;;;;;;;10.77;97.85;100819.94;5032651;28;101907;-31
2022/11/07 02:34:59;;;;;;;1.70;0.60;;;;;;;10.79;98.01;100823.44;5034712;27;96587;-31
2022/11/07 02:37:38;;;;;;;3.97;1.52;;;;;;;10.79;98.20;100816.16;5034776;27;96611;-31
2022/11/07 02:40:08;;;;;;;3.35;1.40;;;;;;;10.77;98.44;100819.94;5033043;28;96853;-31
2022/11/07 02:42:45;;;;;;;1.63;0.70;;;;;;;10.76;98.31;100810.09;5033390;27;99525;-32
2022/11/07 02:45:13;;;;;;;5.47;0.77;;;;;;;10.78;98.10;100805.44;5032642;28;101438;-31
2022/11/07 02:47:39;;;;;;;2.70;1.00;;;;;;;10.76;98.21;100804.66;5032877;28;96563;-31
2022/11/07 02:50:09;;;;;;;4.28;1.23;;;;;;;10.77;97.94;100811.81;5037378;27;96824;-34
2022/11/07 02:52:35;;;;;;;1.67;0.98;;;;;;;10.79;97.76;100809.88;5052940;27;102218;-31
2022/11/07 02:55:00;;;;;;;2.17;0.82;;;;;;;10.81;97.95;100816.06;5052965;27;100874;-31
2022/11/07 02:57:25;;;;;;;1.17;0.65;;;;;;;10.79;97.79;100812.59;5037474;27;96822;-31
2022/11/07 02:59:51;;;;;;;4.30;0.90;;;;;;;10.78;97.92;100802.72;5037678;27;96825;-31
2022/11/07 03:02:16;;;;;;;2.45;1.30;;;;;;;10.79;97.71;100808.03;5037575;27;97974;-31
2022/11/07 03:04:42;;;;;;;3.50;1.33;;;;;;;10.79;97.66;100808.03;5037701;27;97370;-30
2022/11/07 03:07:07;;;;;;;5.57;0.88;;;;;;;10.78;97.40;100810.84;5036385;27;103630;-32
2022/11/07 03:09:32;;;;;;;1.48;0.85;;;;;;;10.79;97.59;100818.88;5037591;28;96809;-32
2022/11/07 03:11:58;;;;;;;2.97;0.95;;;;;;;10.81;97.46;100827.78;5036999;27;97920;-33
2022/11/07 03:14:23;;;;;;;6.40;0.95;;;;;;;10.82;97.48;100820.50;5036406;28;123808;-31
2022/11/07 03:16:48;;;;;;;1.48;0.77;;;;;;;10.81;97.45;100821.50;5037119;28;98455;-34
2022/11/07 03:19:13;;;;;;;4.13;1.30;;;;;;;10.79;97.34;100813.44;5036950;27;96866;-31
2022/11/07 03:21:39;;;;;;;0.68;0.40;;;;;;;10.77;97.76;100814.50;5036951;27;98824;-31
2022/11/07 03:24:04;;;;;;;3.63;0.80;;;;;;;10.80;97.49;100817.06;5036672;28;118607;-32
2022/11/07 03:26:30;;;;;;;1.77;0.80;;;;;;;10.81;97.54;100826.91;5037255;27;96647;-33
2022/11/07 03:28:55;;;;;;;7.22;1.35;;;;;;;10.80;97.54;100819.75;5036887;28;107204;-31
2022/11/07 03:31:21;;;;;;;1.77;0.82;;;;;;;10.80;97.74;100825.19;5036192;27;99278;-31
2022/11/07 03:33:46;;;;;;;4.10;0.73;;;;;;;10.77;97.62;100818.13;5035731;28;97822;-32
2022/11/07 03:36:11;;;;;;;5.15;1.35;;;;;;;10.77;97.74;100819.94;5036417;28;113279;-31
2022/11/07 03:38:36;;;;;;;2.80;1.13;;;;;;;10.77;97.71;100814.50;5037171;27;96798;-31
2022/11/07 03:41:02;;;;;;;2.05;0.98;;;;;;;10.77;97.74;100809.09;5037009;28;100902;-31
2022/11/07 03:43:27;;;;;;;0.88;0.75;;;;;;;10.78;97.63;100814.44;5036958;28;97844;-33
2022/11/07 03:45:53;;;;;;;1.67;0.75;;;;;;;10.76;97.75;100808.22;5036837;27;96593;-31
2022/11/07 03:48:18;;;;;;;3.17;0.75;;;;;;;10.78;97.64;100813.56;5037224;27;100181;-31
2022/11/07 03:50:43;;;;;;;2.65;0.85;;;;;;;10.77;97.72;100818.13;5036298;28;113442;-31
2022/11/07 03:53:09;;;;;;;1.30;0.77;;;;;;;10.77;97.51;100803.69;5036402;27;99132;-32
2022/11/07 03:55:34;;;;;;;21.70;1.60;;;;;;;10.81;97.50;100807.94;5036287;28;96448;-31
2022/11/07 03:57:59;;;;;;;5.05;0.88;;;;;;;10.82;97.45;100825.94;5036452;27;96796;-31
2022/11/07 04:00:25;;;;;;;2.05;0.85;;;;;;;10.83;97.52;100817.72;5035550;27;118175;-31
2022/11/07 04:02:50;;;;;;;0.70;0.50;;;;;;;10.82;97.36;100809.69;5036141;27;105968;-31
2022/11/07 04:05:15;;;;;;;6.03;1.55;;;;;;;10.83;97.46;100808.72;5036778;27;96729;-31
2022/11/07 04:07:41;;;;;;;3.40;1.08;;;;;;;10.82;97.59;100821.41;5036754;27;96756;-31
2022/11/07 04:10:06;;;;;;;0.80;0.50;;;;;;;10.80;97.78;100809.78;5051585;27;104813;-31
2022/11/07 04:17:59;;;;;;;1.75;0.93;;;;;;;10.81;97.60;100824.19;5036627;28;96659;-33
2022/11/07 04:20:26;;;;;;;8.52;0.85;;;;;;;10.80;97.69;100822.47;5035095;28;120035;-32
2022/11/07 04:22:51;;;;;;;3.25;1.02;;;;;;;10.82;97.34;100824.13;5051398;27;100905;-33
2022/11/07 04:25:17;;;;;;;1.75;0.47;;;;;;;10.82;97.43;100818.69;5036596;27;97328;-31
2022/11/07 04:27:42;;;;;;;5.60;1.05;;;;;;;10.82;97.47;100820.50;5036269;27;96850;-31
2022/11/07 04:30:19;;;;;;;9.82;1.52;;;;;;;10.83;97.72;100815.00;5036059;28;98115;-31
2022/11/07 04:32:48;;;;;;;2.58;0.90;;;;;;;10.86;97.51;100813.94;5051586;27;101383;-32
2022/11/07 04:35:14;;;;;;;3.03;0.88;;;;;;;10.87;97.25;100813.00;5051742;27;96607;-31
2022/11/07 04:37:40;;;;;;;2.65;0.60;;;;;;;10.88;97.46;100812.00;5052248;27;96473;-32
2022/11/07 04:40:07;;;;;;;1.23;0.80;;;;;;;10.88;97.55;100816.56;5034476;28;101020;-31
2022/11/07 04:42:32;;;;;;;5.00;0.70;;;;;;;10.88;97.62;100822.84;5051321;27;101933;-31
2022/11/07 04:44:57;;;;;;;6.35;0.63;;;;;;;10.88;97.54;100822.84;5035406;27;96483;-32
2022/11/07 04:47:23;;;;;;;1.80;1.02;;;;;;;10.90;97.41;100826.34;5035318;28;111604;-31
2022/11/07 04:49:48;;;;;;;5.03;0.90;;;;;;;10.91;97.30;100819.94;5035148;28;106181;-31
2022/11/07 04:52:13;;;;;;;4.25;1.02;;;;;;;10.89;97.55;100808.31;5035352;28;110449;-31
2022/11/07 04:54:38;;;;;;;1.40;0.68;;;;;;;10.93;97.26;100815.28;5036155;28;96476;-31
2022/11/07 04:57:04;;;;;;;0.85;0.52;;;;;;;10.97;97.25;100826.81;5036036;28;96888;-32
2022/11/07 04:59:29;;;;;;;4.95;1.10;;;;;;;10.94;97.05;100822.47;5034943;28;106165;-31
2022/11/07 05:01:54;;;;;;;1.80;0.85;;;;;;;10.97;97.01;100830.41;5035259;28;117166;-31
2022/11/07 05:04:19;;;;;;;2.30;0.63;;;;;;;10.97;97.20;100833.09;5035256;28;106118;-31
2022/11/07 05:06:45;;;;;;;0.68;0.43;;;;;;;10.95;97.51;100829.63;5035023;27;101798;-31
2022/11/07 05:09:15;;;;;;;2.15;0.75;;;;;;;10.95;97.48;100823.34;5034696;27;99669;-31
2022/11/07 05:11:40;;;;;;;9.90;1.23;;;;;;;10.93;97.82;100836.97;5033278;28;101231;-30
2022/11/07 05:14:07;;;;;;;3.03;1.13;;;;;;;10.92;98.02;100829.81;5035467;27;96485;-31
2022/11/07 05:16:33;;;;;;;4.47;1.30;;;;;;;10.90;97.99;100829.03;5050781;27;96964;-31
2022/11/07 05:18:58;;;;;;;3.30;1.02;;;;;;;10.90;98.31;100830.88;5050097;27;101016;-31
2022/11/07 05:21:23;;;;;;;2.75;0.80;;;;;;;10.89;98.12;100830.00;5035325;27;97777;-31
2022/11/07 05:23:49;;;;;;;6.20;1.00;;;;;;;10.91;98.06;100838.91;5035368;28;104287;-31
2022/11/07 05:26:14;;;;;;;3.25;1.02;;;;;;;10.89;98.29;100838.13;5034909;27;108769;-32
2022/11/07 05:28:39;;;;;;;7.72;1.05;;;;;;;10.90;98.71;100842.59;5034978;28;101351;-31
2022/11/07 05:31:06;;;;;;;6.75;1.33;;;;;;;10.89;98.59;100843.53;5034870;27;99102;-31
2022/11/07 05:33:32;;;;;;;4.93;0.98;;;;;;;10.88;98.50;100836.41;5033387;28;96570;-31
2022/11/07 05:36:12;;;;;;;3.58;1.38;;;;;;;10.93;98.53;100833.41;5050761;27;96826;-33
2022/11/07 05:38:39;;;;;;;3.83;1.50;;;;;;;10.89;98.57;100827.28;5033465;28;103962;-32
2022/11/07 05:41:04;;;;;;;3.30;1.00;;;;;;;10.92;98.81;100829.81;5035015;27;97993;-32
2022/11/07 05:43:30;;;;;;;7.15;1.27;;;;;;;10.90;98.26;100820.91;5034841;27;102564;-31
2022/11/07 05:45:59;;;;;;;3.33;1.30;;;;;;;10.89;98.64;100818.28;5035270;27;96771;-31
2022/11/07 05:48:24;;;;;;;4.05;0.93;;;;;;;10.91;98.54;100833.47;5033482;28;100743;-31
2022/11/07 05:50:50;;;;;;;6.75;1.55;;;;;;;10.89;98.12;100816.44;5034729;27;103901;-32
2022/11/07 05:53:16;;;;;;;7.78;1.50;;;;;;;10.90;98.05;100831.75;5035090;27;96566;-31
2022/11/07 05:55:41;;;;;;;5.47;1.00;;;;;;;10.98;97.86;100842.09;5034914;27;97919;-31
2022/11/07 05:58:08;;;;;;;5.85;1.17;;;;;;;10.97;97.48;100834.97;5034399;28;105632;-31
2022/11/07 06:00:34;;;;;;;2.13;1.05;;;;;;;10.97;97.57;100835.81;5049917;27;100740;-31
2022/11/07 06:02:59;;;;;;;7.18;1.35;;;;;;;11.00;97.44;100826.63;5035041;27;96630;-31
2022/11/07 06:05:25;;;;;;;3.38;1.27;;;;;;;11.03;97.42;100826.41;5034914;27;96812;-31
2022/11/07 06:07:51;;;;;;;10.65;1.17;;;;;;;11.06;97.37;100828.94;5050112;27;101482;-32
2022/11/07 06:10:16;;;;;;;5.07;1.40;;;;;;;11.05;97.31;100830.75;5034583;28;97907;-31
2022/11/07 06:12:41;;;;;;;6.68;1.05;;;;;;;11.07;97.19;100835.25;5034893;27;96812;-31
2022/11/07 06:15:07;;;;;;;4.20;0.77;;;;;;;11.09;97.23;100836.00;5049724;27;108836;-31
2022/11/07 06:17:32;;;;;;;7.03;1.10;;;;;;;11.10;97.17;100840.44;5034406;27;97905;-31
2022/11/07 06:19:57;;;;;;;5.47;1.42;;;;;;;11.07;97.26;100838.81;5033473;27;108343;-31
2022/11/07 06:22:24;;;;;;;9.55;1.33;;;;;;;11.07;96.93;100833.38;5033672;27;101979;-31
2022/11/07 06:24:50;;;;;;;12.18;0.95;;;;;;;11.10;97.08;100837.75;5037498;28;96804;-31
2022/11/07 06:27:15;;;;;;;10.75;1.70;;;;;;;11.10;97.03;100840.44;5038118;27;97964;-30
2022/11/07 06:29:40;;;;;;;1.83;1.02;;;;;;;11.09;97.19;100841.44;5037894;28;103416;-32
2022/11/07 06:32:06;;;;;;;2.60;0.93;;;;;;;11.08;97.06;100855.94;5038064;28;96643;-32
2022/11/07 06:34:31;;;;;;;4.45;1.40;;;;;;;11.10;97.16;100851.28;5038079;27;96554;-31
2022/11/07 06:36:56;;;;;;;4.53;1.42;;;;;;;11.10;97.15;100854.00;5037763;27;99255;-31
2022/11/07 06:39:22;;;;;;;2.90;0.82;;;;;;;11.11;97.09;100855.75;5038363;27;97903;-31
2022/11/07 06:41:48;;;;;;;5.00;1.38;;;;;;;11.10;96.94;100859.44;5037962;28;96653;-31
2022/11/07 06:44:13;;;;;;;3.38;1.20;;;;;;;11.11;96.65;100861.16;5038137;27;96648;-31
2022/11/07 06:46:39;;;;;;;4.10;0.80;;;;;;;11.12;96.78;100871.06;5035608;28;101089;-31
2022/11/07 06:49:04;;;;;;;2.08;0.93;;;;;;;11.11;96.84;100861.16;5037560;28;99037;-31
2022/11/07 06:51:30;;;;;;;0.57;0.50;;;;;;;11.12;96.83;100866.50;5038127;27;96750;-31
2022/11/07 06:53:56;;;;;;;6.18;1.48;;;;;;;11.09;96.69;100850.44;5037656;27;96850;-31
2022/11/07 06:56:22;;;;;;;6.22;1.35;;;;;;;11.09;96.89;100860.41;5037324;28;99352;-32
2022/11/07 06:58:47;;;;;;;6.32;0.95;;;;;;;11.10;96.63;100860.28;5037394;27;97246;-32
2022/11/07 07:01:13;;;;;;;3.97;1.27;;;;;;;11.11;96.81;100858.44;5037397;28;100855;-31
2022/11/07 07:03:40;;;;;;;3.15;0.70;;;;;;;11.12;96.36;100865.63;5053571;27;96890;-31
2022/11/07 07:06:09;;;;;;;6.57;1.23;;;;;;;11.12;96.73;100861.06;5052860;27;100553;-31
2022/11/07 07:08:34;;;;;;;8.90;2.00;;;;;;;11.13;96.71;100861.94;5035686;28;101159;-31
2022/11/07 07:11:05;;;;;;;10.77;1.23;;;;;;;11.15;96.81;100860.88;5037055;27;96673;-32
2022/11/07 07:13:31;;;;;;;4.93;0.50;;;;;;;11.16;96.53;100872.59;5053047;27;96809;-31
2022/11/07 07:15:57;;;;;;;4.28;1.23;;;;;;;11.15;96.69;100882.56;5036819;27;99410;-31
2022/11/07 07:18:23;;;;;;;3.55;0.98;;;;;;;11.16;96.65;100873.47;5036267;28;98927;-31
2022/11/07 07:20:50;;;;;;;4.07;0.85;;;;;;;11.17;96.55;100883.34;5051431;27;96587;-31
2022/11/07 07:23:17;;;;;;;2.38;1.02;;;;;;;11.17;96.79;100877.91;5036307;28;96800;-32
2022/11/07 07:25:42;;;;;;;2.47;1.25;;;;;;;11.16;96.56;100881.59;5033246;28;101011;-31
2022/11/07 07:28:07;;;;;;;5.85;0.63;;;;;;;11.19;96.62;100892.25;5034432;27;99386;-32
2022/11/07 07:30:33;;;;;;;6.47;1.33;;;;;;;11.20;96.61;100891.28;5035177;28;101211;-31
2022/11/07 07:32:58;;;;;;;5.13;1.63;;;;;;;11.22;96.90;100902.03;5036245;28;96808;-31
2022/11/07 07:35:23;;;;;;;2.70;0.93;;;;;;;11.22;96.44;100902.88;5034371;27;109734;-31
2022/11/07 07:37:50;;;;;;;5.82;1.65;;;;;;;11.25;96.65;100900.00;5035251;27;113354;-33
2022/11/07 07:40:16;;;;;;;4.32;0.90;;;;;;;11.29;96.52;100899.78;5034546;28;96688;-31
2022/11/07 07:42:42;;;;;;;3.78;0.80;;;;;;;11.29;96.67;100906.09;5036076;27;96746;-31
2022/11/07 07:45:10;;;;;;;10.02;1.42;;;;;;;11.31;96.58;100901.44;5034292;28;100773;-31
2022/11/07 07:47:35;;;;;;;4.07;1.23;;;;;;;11.34;96.52;100911.22;5034117;28;98823;-31
2022/11/07 07:50:01;;;;;;;3.35;0.70;;;;;;;11.36;96.63;100912.84;5035737;27;96589;-31
2022/11/07 07:52:26;;;;;;;1.67;0.77;;;;;;;11.40;96.30;100916.25;5035504;28;109560;-31
2022/11/07 07:54:51;;;;;;;9.68;1.23;;;;;;;11.44;96.22;100924.09;5035349;27;99389;-31
2022/11/07 07:57:17;;;;;;;8.88;1.10;;;;;;;11.44;96.26;100924.09;5035445;28;99060;-31
2022/11/07 07:59:42;;;;;;;4.10;1.30;;;;;;;11.46;95.92;100924.88;5034407;28;107238;-30
2022/11/07 08:02:11;;;;;;;6.22;1.65;;;;;;;11.48;96.25;100922.91;5035665;28;101794;-30
2022/11/07 08:04:36;;;;;;;7.40;0.88;;;;;;;11.51;95.97;100931.84;5033898;28;101616;-31
2022/11/07 08:07:02;;;;;;;3.17;1.38;;;;;;;11.50;96.23;100933.69;5035508;27;97736;-32
2022/11/07 08:09:30;;;;;;;3.70;1.20;;;;;;;11.55;95.97;100942.41;5035606;28;96485;-31
2022/11/07 08:11:55;;;;;;;8.15;1.25;;;;;;;11.59;95.97;100934.94;5033820;28;96907;-32
2022/11/07 08:14:20;;;;;;;8.88;1.35;;;;;;;11.58;95.95;100947.63;5034622;28;113623;-31
2022/11/07 08:16:46;;;;;;;2.53;0.95;;;;;;;11.58;95.98;100952.19;5034548;28;119414;-31
2022/11/07 08:19:11;;;;;;;3.05;1.25;;;;;;;11.61;95.97;100957.44;4995009;28;1145759;-31
2022/11/07 08:21:36;;;;;;;5.95;0.88;;;;;;;11.65;95.91;100969.81;5035347;28;96893;-31
2022/11/07 08:24:02;;;;;;;2.90;0.68;;;;;;;11.63;95.56;100961.78;5035212;28;113475;-31
2022/11/07 08:26:27;;;;;;;7.00;1.63;;;;;;;11.68;95.52;100959.63;5036172;27;97738;-31
2022/11/07 08:28:53;;;;;;;4.15;0.85;;;;;;;11.72;95.66;100975.72;5036203;28;96610;-31
2022/11/07 08:31:19;;;;;;;12.77;1.38;;;;;;;11.72;95.45;100970.28;5035075;28;96787;-31
2022/11/07 08:33:44;;;;;;;1.40;0.95;;;;;;;11.77;95.63;100965.44;5036050;27;97361;-31
2022/11/07 08:36:10;;;;;;;4.60;0.98;;;;;;;11.75;95.40;100972.78;5035767;28;106171;-31
2022/11/07 08:38:36;;;;;;;3.25;1.00;;;;;;;11.77;95.57;100974.44;5035699;28;103503;-31
2022/11/07 08:41:02;;;;;;;2.35;1.02;;;;;;;11.76;95.52;100969.13;5035074;28;96845;-31
2022/11/07 08:43:28;;;;;;;5.78;1.10;;;;;;;11.79;95.56;100974.34;5034441;28;100995;-31
2022/11/07 08:45:54;;;;;;;11.73;1.65;;;;;;;11.82;95.63;100972.31;5035028;27;97804;-31
2022/11/07 08:48:19;;;;;;;5.78;1.13;;;;;;;11.81;95.44;100973.28;5034061;28;96585;-31
2022/11/07 08:50:45;;;;;;;4.65;0.90;;;;;;;11.83;95.20;100965.91;5036000;27;96757;-31
2022/11/07 08:53:11;;;;;;;5.50;0.98;;;;;;;11.88;95.32;100971.94;5035668;28;98034;-31
2022/11/07 08:55:37;;;;;;;3.85;1.15;;;;;;;11.89;95.28;100987.28;5035341;27;98381;-31
2022/11/07 08:58:06;;;;;;;4.18;1.10;;;;;;;11.88;95.36;100985.50;5034458;28;96608;-31
2022/11/07 09:00:33;;;;;;;7.78;1.00;;;;;;;11.93;95.44;100978.91;5034484;28;96964;-32
2022/11/07 09:03:05;;;;;;;4.18;1.13;;;;;;;11.94;95.51;100986.06;5034177;28;101403;-31
2022/11/07 09:05:31;;;;;;;2.17;1.02;;;;;;;11.98;95.43;100990.34;5034405;28;101325;-32
2022/11/07 09:07:56;;;;;;;7.78;0.80;;;;;;;11.99;95.19;100986.66;5035953;28;96430;-32
2022/11/07 09:10:22;;;;;;;4.72;0.77;;;;;;;12.02;95.55;100989.19;5035391;27;96805;-31
2022/11/07 09:12:49;;;;;;;3.70;1.17;;;;;;;12.03;95.40;100999.06;5033441;28;100771;-31
2022/11/07 09:15:14;;;;;;;4.60;0.95;;;;;;;12.05;95.58;100997.13;5033734;28;101130;-31
2022/11/07 09:17:41;;;;;;;5.15;0.90;;;;;;;12.01;95.79;100993.75;5034245;28;96624;-32
2022/11/07 09:20:08;;;;;;;3.38;1.02;;;;;;;11.99;96.13;100994.78;5033969;28;96803;-31
2022/11/07 09:22:34;;;;;;;3.55;0.88;;;;;;;11.96;96.25;100995.00;5033719;28;101135;-33
2022/11/07 09:24:59;;;;;;;5.35;1.08;;;;;;;11.98;96.65;101003.91;5035143;28;97538;-32
2022/11/07 09:27:24;;;;;;;12.07;1.38;;;;;;;11.97;96.80;101002.19;5035380;28;96957;-31
2022/11/07 09:29:49;;;;;;;3.35;0.88;;;;;;;11.99;96.71;101014.69;5034221;28;96808;-31
2022/11/07 09:32:15;;;;;;;8.07;1.20;;;;;;;11.98;97.07;101003.91;5035294;27;98183;-31
2022/11/07 09:34:43;;;;;;;4.53;0.90;;;;;;;12.02;97.02;101000.91;5034778;27;106314;-32
2022/11/07 09:37:09;;;;;;;3.85;1.00;;;;;;;12.11;97.02;101002.16;5033401;27;96696;-31
2022/11/07 09:39:35;;;;;;;4.43;0.70;;;;;;;12.18;97.31;100995.34;5033667;28;97094;-32
2022/11/07 09:42:22;;;;;;;10.82;1.27;;;;;;;12.23;96.18;101009.50;5034797;28;107973;-32
2022/11/07 09:44:58;;;;;;;6.03;0.73;;;;;;;12.21;96.23;101006.00;5033332;28;101314;-33
2022/11/07 09:47:32;;;;;;;2.35;0.90;;;;;;;12.26;96.12;101013.84;5033877;28;96676;-32
2022/11/07 09:50:10;;;;;;;2.15;0.70;;;;;;;12.27;95.92;101018.28;5033703;27;96707;-33
2022/11/07 09:52:44;;;;;;;3.70;1.17;;;;;;;12.25;95.79;101021.13;5033349;28;100979;-31
2022/11/07 09:55:48;;;;;;;1.88;0.70;;;;;;;12.30;95.98;101026.25;5033761;28;100007;-31
2022/11/07 09:58:19;;;;;;;4.13;1.27;;;;;;;12.30;95.73;101024.41;5020167;28;97891;-32
2022/11/07 10:00:44;;;;;;;2.43;0.90;;;;;;;12.35;95.64;101018.69;5035124;27;96857;-32
2022/11/07 10:03:10;;;;;;;3.17;1.08;;;;;;;12.39;95.33;101024.75;5032784;28;98083;-31
2022/11/07 10:05:45;;;;;;;3.65;1.00;;;;;;;12.44;95.64;101028.03;5034822;27;97290;-31
2022/11/07 10:08:16;;;;;;;4.78;1.58;;;;;;;12.41;94.88;101020.09;5033452;28;96578;-31
2022/11/07 10:10:47;;;;;;;10.38;1.13;;;;;;;12.40;94.76;101023.81;5030703;27;96803;-32
2022/11/07 10:13:40;;;;;;;7.57;1.15;;;;;;;12.41;95.28;101033.69;5031396;28;103220;-31
2022/11/07 10:16:19;;;;;;;6.57;1.48;;;;;;;12.38;94.84;101029.34;5033346;27;97351;-31
2022/11/07 10:19:21;;;;;;;6.35;1.10;;;;;;;12.39;94.42;101030.19;5032222;28;96727;-31
2022/11/07 10:22:04;;;;;;;6.00;1.03;;;;;;;12.44;94.94;101044.34;5002364;27;96927;-31
2022/11/07 10:24:35;;;;;;;8.57;1.17;;;;;;;12.45;94.46;101041.53;5033843;28;99609;-31
2022/11/07 10:27:01;;;;;;;10.27;1.08;;;;;;;12.48;94.67;101045.88;5034511;27;97843;-31
2022/11/07 10:29:43;;;;;;;8.82;1.40;;;;;;;12.49;94.57;101043.09;5033549;27;97412;-31
2022/11/07 10:32:23;;;;;;;7.75;1.52;;;;;;;12.51;94.55;101042.97;5033270;28;96740;-31
2022/11/07 10:34:55;;;;;;;5.88;1.02;;;;;;;12.52;93.89;101040.16;5032797;28;101014;-31
2022/11/07 10:37:21;;;;;;;4.28;1.23;;;;;;;12.55;94.02;101052.66;5032808;28;101249;-32
2022/11/07 10:39:46;;;;;;;3.08;1.23;;;;;;;12.59;94.42;101056.06;5034428;27;96525;-31
2022/11/07 10:42:19;;;;;;;6.35;1.63;;;;;;;12.61;94.44;101060.41;5034094;27;100669;-31
2022/11/07 10:44:44;;;;;;;9.57;1.50;;;;;;;12.61;94.26;101052.25;5032798;28;101471;-31
2022/11/07 10:47:28;;;;;;;3.55;0.90;;;;;;;12.63;94.05;101050.31;5034182;27;104248;-32
2022/11/07 10:49:56;;;;;;;4.57;1.15;;;;;;;12.67;93.62;101059.13;5033532;28;113726;-31
2022/11/07 10:52:23;;;;;;;5.82;1.10;;;;;;;12.66;93.65;101052.81;5034178;28;96759;-31
2022/11/07 10:54:48;;;;;;;11.93;1.05;;;;;;;12.68;93.71;101061.75;5033480;28;99364;-31
2022/11/07 10:57:21;;;;;;;4.97;1.35;;;;;;;12.70;93.83;101054.38;5034257;28;97504;-31
2022/11/07 10:59:55;;;;;;;5.95;1.40;;;;;;;12.71;93.70;101058.81;5032731;28;97584;-31
2022/11/07 11:02:45;;;;;;;2.53;0.70;;;;;;;12.77;93.30;101064.81;5032879;28;96803;-31
2022/11/07 11:05:21;;;;;;;2.50;0.85;;;;;;;12.77;93.34;101064.81;5032619;28;101432;-31
2022/11/07 11:07:46;;;;;;;5.30;1.20;;;;;;;12.77;93.67;101065.69;5032419;28;100933;-33
2022/11/07 11:10:20;;;;;;;3.97;0.90;;;;;;;12.79;93.33;101058.28;5035522;27;104034;-31
2022/11/07 11:12:47;;;;;;;4.95;1.35;;;;;;;12.84;93.42;101060.69;5036412;27;96732;-31
2022/11/07 11:15:14;;;;;;;2.70;1.10;;;;;;;12.87;92.75;101058.66;5035459;28;100968;-31
2022/11/07 11:17:39;;;;;;;4.65;1.08;;;;;;;12.88;93.34;101056.81;5035864;28;101128;-31
2022/11/07 11:20:22;;;;;;;1.55;0.75;;;;;;;12.88;92.82;101046.78;5036873;28;96518;-31
2022/11/07 11:22:47;;;;;;;7.13;1.00;;;;;;;12.92;93.27;101044.75;5037646;28;96571;-31
2022/11/07 11:25:18;;;;;;;5.50;1.02;;;;;;;12.96;92.78;101038.97;5037290;28;97487;-31
2022/11/07 11:27:45;;;;;;;7.07;1.30;;;;;;;13.02;92.94;101034.13;5037126;28;97899;-31
2022/11/07 11:30:16;;;;;;;4.63;1.27;;;;;;;13.09;91.63;101033.59;5037290;28;96579;-31
2022/11/07 11:32:43;;;;;;;6.75;1.75;;;;;;;13.17;92.16;101038.47;5035906;28;96764;-32